DNAA/ABV METAR and TAF weather

Enter ICAO airport designator
Station Type Date Time Source
DNAA METAR 2019/02/23 15:00 UTC NOAA

DNAA 231500Z 24007KT 190V280 9999 FEW016 35/16 Q1009 NOSIG


Station Type Date Time Source
DNAA Decoded METAR 2019/02/23 15:00 UTC NOAA

Station name not available
Feb 23, 2019 - 10:00 AM EST / 2019.02.23 1500 UTC
Wind: from the WSW (240 degrees) at 8 MPH (7 KT) (direction variable):0
Visibility: greater than 7 mile(s):0
Sky conditions: mostly clear
Temperature: 95 F (35 C)
Heat index: 95.2 F (35.1 C):1
Dew Point: 60 F (16 C)
Relative Humidity: 32%
Pressure (altimeter): 29.80 in. Hg (1009 hPa)
ob: DNAA 231500Z 24007KT 190V280 9999 FEW016 35/16 Q1009 NOSIG
cycle: 15

Station Type Date Time Source
DNAA TAF 2019/02/22 18:21 UTC NOAA

TAF TAF DNAA 221540Z 2218/2324 26010KT 7000 FEW013 FEW020CB PROB30
TEMPO 2218/2224 04015G35KT 5000 -TSRA BKN010 PROB30
TEMPO 2304/2309 06004KT 5000 HZ
BECMG 2308/2310 18006KT


Example: see airport list